Time;durP1;ratioP1;P1;durP2;ratioP2;P2;SDS_P1;SDS_P2;PMS_P1;PMS_P2;Temp;Humidity;BMP_temperature;BMP_pressure;BME280_temperature;BME280_humidity;BME280_pressure;Samples;Min_cycle;Max_cycle;Signal;HPM_P1;HPM_P2
2021/07/26 00:01:22;;;;;;;0.20;0.20;;;;;;;;;;4793698;29;20048;-90
2021/07/26 00:03:48;;;;;;;0.10;0.10;;;;;;;;;;4793527;29;20082;-90
2021/07/26 00:06:14;;;;;;;0.10;0.10;;;;;;;;;;4793452;29;20459;-90
2021/07/26 00:08:41;;;;;;;0.20;0.20;;;;;;;;;;4793325;29;20449;-90
2021/07/26 00:11:08;;;;;;;0.10;0.10;;;;;;;;;;4793868;29;20064;-90
2021/07/26 00:13:34;;;;;;;0.30;0.30;;;;;;;;;;4792981;29;20047;-89
2021/07/26 00:16:00;;;;;;;0.10;0.10;;;;;;;;;;4793319;29;20117;-90
2021/07/26 00:18:29;;;;;;;0.20;0.20;;;;;;;;;;4792863;29;20049;-89
2021/07/26 00:20:56;;;;;;;0.20;0.20;;;;;;;;;;4808113;29;20054;-90
2021/07/26 00:23:22;;;;;;;0.10;0.10;;;;;;;;;;4792699;29;20137;-90
2021/07/26 00:25:48;;;;;;;0.20;0.20;;;;;;;;;;4807988;29;20127;-89
2021/07/26 00:28:14;;;;;;;0.10;0.10;;;;;;;;;;4807824;29;20039;-90
2021/07/26 00:30:40;;;;;;;0.10;0.10;;;;;;;;;;4792439;29;20078;-89
2021/07/26 00:33:39;;;;;;;0.20;0.20;;;;;;;;;;4792697;29;20049;-89
2021/07/26 00:36:05;;;;;;;0.20;0.20;;;;;;;;;;4806229;29;20137;-90
2021/07/26 00:38:31;;;;;;;0.10;0.10;;;;;;;;;;4793216;29;20046;-90
2021/07/26 00:40:57;;;;;;;0.10;0.10;;;;;;;;;;4792813;29;20111;-89
2021/07/26 00:43:23;;;;;;;0.30;0.30;;;;;;;;;;4792707;29;20494;-90
2021/07/26 00:45:51;;;;;;;0.10;0.10;;;;;;;;;;4792416;29;20045;-89
2021/07/26 00:48:17;;;;;;;0.10;0.10;;;;;;;;;;4792808;29;20066;-90
2021/07/26 00:50:43;;;;;;;0.10;0.10;;;;;;;;;;4792501;29;20046;-90
2021/07/26 00:53:09;;;;;;;0.20;0.20;;;;;;;;;;4792503;29;20054;-91
2021/07/26 00:55:35;;;;;;;0.10;0.10;;;;;;;;;;4792978;29;20113;-90
2021/07/26 00:58:01;;;;;;;0.15;0.15;;;;;;;;;;4807717;29;20042;-90
2021/07/26 01:00:27;;;;;;;0.20;0.20;;;;;;;;;;4807393;29;20502;-90
2021/07/26 01:02:53;;;;;;;0.20;0.20;;;;;;;;;;4792359;29;20050;-89
2021/07/26 01:05:19;;;;;;;0.20;0.20;;;;;;;;;;4792594;29;20048;-90
2021/07/26 01:07:45;;;;;;;0.10;0.10;;;;;;;;;;4807677;29;20074;-91
2021/07/26 01:10:12;;;;;;;0.10;0.10;;;;;;;;;;4807479;29;20038;-90
2021/07/26 01:12:38;;;;;;;0.10;0.10;;;;;;;;;;4807246;29;20083;-91
2021/07/26 01:15:04;;;;;;;0.10;0.10;;;;;;;;;;4792395;29;20038;-89
2021/07/26 01:17:57;;;;;;;0.10;0.10;;;;;;;;;;4792204;29;20444;-89
2021/07/26 01:20:23;;;;;;;0.10;0.10;;;;;;;;;;4795728;29;20085;-89
2021/07/26 01:22:50;;;;;;;0.20;0.20;;;;;;;;;;4791890;29;20066;-89
2021/07/26 01:25:16;;;;;;;0.10;0.10;;;;;;;;;;4807064;29;20050;-89
2021/07/26 01:27:42;;;;;;;0.10;0.10;;;;;;;;;;4792184;29;20444;-89
2021/07/26 01:30:08;;;;;;;0.10;0.10;;;;;;;;;;4807104;29;20099;-89
2021/07/26 01:32:34;;;;;;;0.10;0.10;;;;;;;;;;4792116;29;20479;-90
2021/07/26 01:35:00;;;;;;;0.10;0.10;;;;;;;;;;4807256;29;20428;-90
2021/07/26 01:37:26;;;;;;;0.28;0.28;;;;;;;;;;4792085;29;20293;-90
2021/07/26 01:39:52;;;;;;;0.10;0.10;;;;;;;;;;4791966;29;20073;-90
2021/07/26 01:42:19;;;;;;;0.10;0.10;;;;;;;;;;4806984;29;20114;-89
2021/07/26 01:44:45;;;;;;;0.10;0.10;;;;;;;;;;4806928;29;20043;-89
2021/07/26 01:47:11;;;;;;;0.10;0.10;;;;;;;;;;4792047;29;20046;-89
2021/07/26 01:49:37;;;;;;;0.10;0.10;;;;;;;;;;4795038;29;20045;-90
2021/07/26 01:52:04;;;;;;;0.20;0.20;;;;;;;;;;4810042;29;20091;-90
2021/07/26 01:54:30;;;;;;;0.10;0.10;;;;;;;;;;4795500;29;20042;-90
2021/07/26 01:56:56;;;;;;;0.10;0.10;;;;;;;;;;4810487;29;20480;-90
2021/07/26 01:59:22;;;;;;;0.10;0.10;;;;;;;;;;4795283;29;20078;-90
2021/07/26 02:01:48;;;;;;;0.10;0.10;;;;;;;;;;4795362;29;20050;-90
2021/07/26 02:04:14;;;;;;;0.10;0.10;;;;;;;;;;4810524;29;20046;-90
2021/07/26 02:06:40;;;;;;;0.10;0.10;;;;;;;;;;4795609;29;20042;-90
2021/07/26 02:09:06;;;;;;;0.20;0.20;;;;;;;;;;4795399;29;20045;-90
2021/07/26 02:11:32;;;;;;;0.10;0.10;;;;;;;;;;4795262;29;20099;-90
2021/07/26 02:13:59;;;;;;;0.10;0.10;;;;;;;;;;4795568;29;20460;-90
2021/07/26 02:16:25;;;;;;;0.10;0.10;;;;;;;;;;4810069;29;20412;-90
2021/07/26 02:18:50;;;;;;;0.30;0.30;;;;;;;;;;4810068;29;20039;-90
2021/07/26 02:21:17;;;;;;;0.10;0.10;;;;;;;;;;4795074;29;20043;-90
2021/07/26 02:23:44;;;;;;;0.10;0.10;;;;;;;;;;4795430;29;20079;-89
2021/07/26 02:26:10;;;;;;;0.20;0.20;;;;;;;;;;4795053;29;20068;-90
2021/07/26 02:28:36;;;;;;;0.10;0.10;;;;;;;;;;4795042;29;20042;-90
2021/07/26 02:31:02;;;;;;;0.10;0.10;;;;;;;;;;4795165;29;20114;-90
2021/07/26 02:33:28;;;;;;;0.10;0.10;;;;;;;;;;4809863;29;20041;-90
2021/07/26 02:35:55;;;;;;;0.20;0.20;;;;;;;;;;4795310;29;20043;-90
2021/07/26 02:38:21;;;;;;;0.10;0.10;;;;;;;;;;4809913;29;20125;-90
2021/07/26 02:40:47;;;;;;;0.10;0.10;;;;;;;;;;4794799;29;20042;-90
2021/07/26 02:43:13;;;;;;;0.10;0.10;;;;;;;;;;4795081;29;20161;-90
2021/07/26 02:45:39;;;;;;;0.10;0.10;;;;;;;;;;4795270;29;20122;-91
2021/07/26 02:48:05;;;;;;;0.10;0.10;;;;;;;;;;4794674;29;20039;-90
2021/07/26 02:50:32;;;;;;;0.10;0.10;;;;;;;;;;4794546;29;20078;-90
2021/07/26 02:53:01;;;;;;;0.10;0.10;;;;;;;;;;4794230;29;20058;-90
2021/07/26 02:55:28;;;;;;;0.10;0.10;;;;;;;;;;4794779;29;20050;-90
2021/07/26 02:57:54;;;;;;;0.10;0.10;;;;;;;;;;4794614;29;20081;-90
2021/07/26 03:00:20;;;;;;;0.10;0.10;;;;;;;;;;4793252;29;20046;-89
2021/07/26 03:02:46;;;;;;;0.20;0.20;;;;;;;;;;4794288;29;20046;-90
2021/07/26 03:05:12;;;;;;;0.10;0.10;;;;;;;;;;4794754;29;20464;-90
2021/07/26 03:07:38;;;;;;;0.10;0.10;;;;;;;;;;4794141;29;20038;-89
2021/07/26 03:10:05;;;;;;;0.10;0.10;;;;;;;;;;4809166;29;20042;-89
2021/07/26 03:12:31;;;;;;;0.10;0.10;;;;;;;;;;4793931;29;20134;-89
2021/07/26 03:14:57;;;;;;;0.10;0.10;;;;;;;;;;4809034;29;20085;-89
2021/07/26 03:17:25;;;;;;;0.10;0.10;;;;;;;;;;4808976;29;20107;-89
2021/07/26 03:19:54;;;;;;;0.10;0.10;;;;;;;;;;4809136;29;20129;-89
2021/07/26 03:22:39;;;;;;;0.10;0.10;;;;;;;;;;4794144;29;20483;-90
2021/07/26 03:25:07;;;;;;;0.10;0.10;;;;;;;;;;4808841;29;20050;-89
2021/07/26 03:27:33;;;;;;;0.10;0.10;;;;;;;;;;4793612;29;20047;-89
2021/07/26 03:29:59;;;;;;;0.10;0.10;;;;;;;;;;4808964;29;20121;-90
2021/07/26 03:32:26;;;;;;;0.20;0.20;;;;;;;;;;4793895;29;20073;-90
2021/07/26 03:34:52;;;;;;;0.10;0.10;;;;;;;;;;4809057;29;20083;-90
2021/07/26 03:37:18;;;;;;;0.10;0.10;;;;;;;;;;4808694;29;20046;-90
2021/07/26 03:39:44;;;;;;;0.10;0.10;;;;;;;;;;4808780;29;20049;-89
2021/07/26 03:42:10;;;;;;;0.10;0.10;;;;;;;;;;4824529;29;20054;-89
2021/07/26 03:44:36;;;;;;;0.10;0.10;;;;;;;;;;4808350;29;20038;-89
2021/07/26 03:47:02;;;;;;;0.10;0.10;;;;;;;;;;4793277;29;20042;-89
2021/07/26 03:49:28;;;;;;;0.10;0.10;;;;;;;;;;4808466;29;20046;-90
2021/07/26 03:51:54;;;;;;;0.10;0.10;;;;;;;;;;4808187;29;20384;-89
2021/07/26 03:54:20;;;;;;;0.10;0.10;;;;;;;;;;4808460;29;20050;-90
2021/07/26 03:56:46;;;;;;;0.40;0.40;;;;;;;;;;4793353;29;20039;-90
2021/07/26 03:59:12;;;;;;;0.10;0.10;;;;;;;;;;4808466;29;20042;-89
2021/07/26 04:01:38;;;;;;;0.10;0.10;;;;;;;;;;4808119;29;20046;-89
2021/07/26 04:04:04;;;;;;;0.10;0.10;;;;;;;;;;4793193;29;20103;-89
2021/07/26 04:06:31;;;;;;;0.20;0.20;;;;;;;;;;4792997;29;20133;-89
2021/07/26 04:08:57;;;;;;;0.10;0.10;;;;;;;;;;4793146;29;20046;-89
2021/07/26 04:11:30;;;;;;;0.10;0.10;;;;;;;;;;4807699;29;20504;-89
2021/07/26 04:14:03;;;;;;;0.30;0.30;;;;;;;;;;4808989;29;20447;-89
2021/07/26 04:16:29;;;;;;;0.10;0.10;;;;;;;;;;4793654;29;20062;-89
2021/07/26 04:18:56;;;;;;;0.20;0.20;;;;;;;;;;4808061;29;20484;-89
2021/07/26 04:21:32;;;;;;;0.20;0.20;;;;;;;;;;4808041;29;20039;-90
2021/07/26 04:23:58;;;;;;;0.10;0.10;;;;;;;;;;4792976;29;20046;-89
2021/07/26 04:26:25;;;;;;;0.20;0.20;;;;;;;;;;4807755;29;20053;-89
2021/07/26 04:28:51;;;;;;;0.10;0.10;;;;;;;;;;4792591;29;20038;-89
2021/07/26 04:31:18;;;;;;;0.20;0.20;;;;;;;;;;4793204;29;20047;-90
2021/07/26 04:33:44;;;;;;;0.10;0.10;;;;;;;;;;4792693;29;20074;-89
2021/07/26 04:36:10;;;;;;;0.10;0.10;;;;;;;;;;4807619;29;20506;-89
2021/07/26 04:38:37;;;;;;;0.17;0.17;;;;;;;;;;4792873;29;20061;-89
2021/07/26 04:41:04;;;;;;;0.10;0.10;;;;;;;;;;4792586;29;20113;-89
2021/07/26 04:43:30;;;;;;;0.10;0.10;;;;;;;;;;4792415;29;20483;-90
2021/07/26 04:45:56;;;;;;;0.10;0.10;;;;;;;;;;4807560;29;20381;-89
2021/07/26 04:48:23;;;;;;;0.10;0.10;;;;;;;;;;4807536;29;20077;-89
2021/07/26 04:50:49;;;;;;;0.20;0.20;;;;;;;;;;4807719;29;20043;-90
2021/07/26 04:53:15;;;;;;;0.10;0.10;;;;;;;;;;4792341;29;20091;-89
2021/07/26 04:55:41;;;;;;;0.10;0.10;;;;;;;;;;4792367;29;20053;-90
2021/07/26 04:58:07;;;;;;;0.20;0.20;;;;;;;;;;4807400;29;20034;-89
2021/07/26 05:00:33;;;;;;;0.10;0.10;;;;;;;;;;4792860;29;20498;-91
2021/07/26 05:02:59;;;;;;;0.10;0.10;;;;;;;;;;4807938;29;20050;-91
2021/07/26 05:05:26;;;;;;;0.20;0.20;;;;;;;;;;4793102;29;20042;-92
2021/07/26 05:07:52;;;;;;;0.10;0.10;;;;;;;;;;4807695;29;20066;-90
2021/07/26 05:10:18;;;;;;;0.10;0.10;;;;;;;;;;4792784;29;20515;-92
2021/07/26 05:12:44;;;;;;;0.20;0.20;;;;;;;;;;4792683;29;20059;-91
2021/07/26 05:15:10;;;;;;;0.10;0.10;;;;;;;;;;4807802;29;20042;-90
2021/07/26 05:17:36;;;;;;;0.10;0.10;;;;;;;;;;4792862;29;20043;-91
2021/07/26 05:20:03;;;;;;;0.10;0.10;;;;;;;;;;4792570;29;20042;-91
2021/07/26 05:22:29;;;;;;;0.15;0.15;;;;;;;;;;4807824;29;20050;-91
2021/07/26 05:24:55;;;;;;;0.10;0.10;;;;;;;;;;4796310;29;20046;-91
2021/07/26 05:27:22;;;;;;;0.10;0.10;;;;;;;;;;4796463;29;20057;-93
2021/07/26 05:29:51;;;;;;;0.10;0.10;;;;;;;;;;4811566;29;20475;-92
2021/07/26 05:32:17;;;;;;;0.10;0.10;;;;;;;;;;4796961;29;20400;-89
2021/07/26 05:34:44;;;;;;;0.10;0.10;;;;;;;;;;4795778;29;20058;-89
2021/07/26 05:37:11;;;;;;;0.10;0.10;;;;;;;;;;4795629;29;20051;-89
2021/07/26 05:39:37;;;;;;;0.20;0.20;;;;;;;;;;4795832;29;20125;-90
2021/07/26 05:42:03;;;;;;;0.10;0.10;;;;;;;;;;4795833;29;20073;-90
2021/07/26 05:44:29;;;;;;;0.10;0.10;;;;;;;;;;4810625;29;20038;-89
2021/07/26 05:46:55;;;;;;;0.10;0.10;;;;;;;;;;4795236;29;20103;-89
2021/07/26 05:49:21;;;;;;;0.10;0.10;;;;;;;;;;4796031;29;20087;-90
2021/07/26 05:51:47;;;;;;;0.10;0.10;;;;;;;;;;4795355;29;20050;-92
2021/07/26 05:54:13;;;;;;;0.10;0.10;;;;;;;;;;4795580;29;20552;-91
2021/07/26 05:56:43;;;;;;;0.10;0.10;;;;;;;;;;4795799;29;20088;-92
2021/07/26 05:59:09;;;;;;;0.10;0.10;;;;;;;;;;4809530;29;20066;-92
2021/07/26 06:01:47;;;;;;;0.10;0.10;;;;;;;;;;4794761;29;20042;-91
2021/07/26 06:04:22;;;;;;;0.17;0.17;;;;;;;;;;4797110;29;20460;-92
2021/07/26 06:06:49;;;;;;;0.20;0.20;;;;;;;;;;4795473;29;20038;-92
2021/07/26 06:09:15;;;;;;;0.30;0.20;;;;;;;;;;4795491;29;20129;-92
2021/07/26 06:11:42;;;;;;;0.20;0.20;;;;;;;;;;4795385;29;20046;-92
2021/07/26 06:14:08;;;;;;;0.10;0.10;;;;;;;;;;4795137;29;20046;-92
2021/07/26 06:16:34;;;;;;;0.20;0.20;;;;;;;;;;4826310;29;20046;-92
2021/07/26 06:19:08;;;;;;;0.10;0.10;;;;;;;;;;4825320;29;20046;-92
2021/07/26 06:21:34;;;;;;;0.10;0.10;;;;;;;;;;4825430;29;20038;-92
2021/07/26 06:24:00;;;;;;;0.20;0.20;;;;;;;;;;4825056;29;20107;-92
2021/07/26 06:26:26;;;;;;;0.10;0.10;;;;;;;;;;4827152;29;20099;-92
2021/07/26 06:28:54;;;;;;;0.10;0.10;;;;;;;;;;4795422;29;20058;-92
2021/07/26 06:31:20;;;;;;;0.20;0.20;;;;;;;;;;4810676;29;20113;-91
2021/07/26 06:33:46;;;;;;;0.20;0.20;;;;;;;;;;4805551;29;20047;-92
2021/07/26 06:36:12;;;;;;;0.20;0.20;;;;;;;;;;4791831;29;20046;-92
2021/07/26 06:38:39;;;;;;;1.02;0.40;;;;;;;;;;4792836;29;20089;-96
2021/07/26 06:41:06;;;;;;;0.30;0.30;;;;;;;;;;4777572;29;20054;-96
2021/07/26 06:43:42;;;;;;;0.10;0.10;;;;;;;;;;4794271;29;20051;-95
2021/07/26 06:46:08;;;;;;;0.20;0.20;;;;;;;;;;4781424;29;20065;-94
2021/07/26 06:48:53;;;;;;;;;;;;;;;;;;;;;
2021/07/26 06:51:22;;;;;;;0.28;0.28;;;;;;;;;;4794572;29;20540;-96
2021/07/26 06:53:49;;;;;;;0.10;0.10;;;;;;;;;;4785475;29;20134;-96
2021/07/26 06:56:15;;;;;;;0.10;0.10;;;;;;;;;;4778497;29;20089;-91
2021/07/26 06:58:44;;;;;;;0.20;0.20;;;;;;;;;;4791528;29;20094;-91
2021/07/26 07:01:12;;;;;;;0.10;0.10;;;;;;;;;;4776768;29;20568;-91
2021/07/26 07:03:42;;;;;;;0.20;0.20;;;;;;;;;;4791258;29;20051;-90
2021/07/26 07:06:11;;;;;;;0.10;0.10;;;;;;;;;;4806033;29;20054;-90
2021/07/26 07:08:37;;;;;;;0.10;0.10;;;;;;;;;;4775157;29;20058;-91
2021/07/26 07:11:07;;;;;;;0.20;0.20;;;;;;;;;;4791865;29;20035;-90
2021/07/26 07:13:33;;;;;;;0.20;0.20;;;;;;;;;;4776060;29;20047;-90
2021/07/26 07:15:59;;;;;;;0.20;0.20;;;;;;;;;;4791043;29;20039;-90
2021/07/26 07:18:25;;;;;;;0.15;0.15;;;;;;;;;;4776185;29;20056;-89
2021/07/26 07:20:52;;;;;;;0.10;0.10;;;;;;;;;;4791072;29;20191;-90
2021/07/26 07:23:18;;;;;;;0.15;0.15;;;;;;;;;;4791298;29;20053;-91
2021/07/26 07:25:44;;;;;;;0.20;0.20;;;;;;;;;;4791356;29;20046;-91
2021/07/26 07:28:10;;;;;;;0.17;0.17;;;;;;;;;;4785182;29;20065;-90
2021/07/26 07:30:42;;;;;;;0.20;0.20;;;;;;;;;;4795605;29;20062;-89
2021/07/26 07:33:08;;;;;;;0.20;0.20;;;;;;;;;;4808533;29;20475;-87
2021/07/26 07:35:34;;;;;;;0.20;0.20;;;;;;;;;;4793696;29;20052;-89
2021/07/26 07:38:00;;;;;;;0.10;0.10;;;;;;;;;;4808633;29;20073;-89
2021/07/26 07:40:26;;;;;;;0.20;0.20;;;;;;;;;;4793328;29;20046;-88
2021/07/26 07:42:53;;;;;;;0.30;0.30;;;;;;;;;;4793192;29;20487;-88
2021/07/26 07:45:19;;;;;;;0.20;0.20;;;;;;;;;;4792792;29;20465;-87
2021/07/26 07:47:46;;;;;;;0.20;0.20;;;;;;;;;;4808000;29;20099;-89
2021/07/26 07:50:14;;;;;;;0.30;0.30;;;;;;;;;;4808373;29;20048;-89
2021/07/26 07:52:40;;;;;;;0.20;0.20;;;;;;;;;;4808345;29;20054;-90
2021/07/26 07:55:07;;;;;;;0.20;0.20;;;;;;;;;;4793020;29;20054;-89
2021/07/26 07:57:36;;;;;;;0.20;0.20;;;;;;;;;;4808224;29;20034;-89
2021/07/26 08:00:03;;;;;;;0.20;0.20;;;;;;;;;;4793372;29;20047;-90
2021/07/26 08:02:30;;;;;;;0.20;0.20;;;;;;;;;;4808128;29;20049;-89
2021/07/26 08:04:56;;;;;;;0.20;0.20;;;;;;;;;;4824203;29;20043;-89
2021/07/26 08:07:22;;;;;;;0.20;0.20;;;;;;;;;;4807957;29;20046;-88
2021/07/26 08:09:48;;;;;;;0.20;0.20;;;;;;;;;;4792855;29;20187;-89
2021/07/26 08:12:15;;;;;;;0.40;0.40;;;;;;;;;;4807809;29;20484;-89
2021/07/26 08:14:41;;;;;;;0.40;0.40;;;;;;;;;;4792872;29;20046;-88
2021/07/26 08:17:07;;;;;;;0.20;0.20;;;;;;;;;;4807677;29;20198;-89
2021/07/26 08:19:33;;;;;;;0.20;0.20;;;;;;;;;;4807979;29;20102;-88
2021/07/26 08:21:59;;;;;;;0.20;0.20;;;;;;;;;;4793034;29;20038;-91
2021/07/26 08:24:25;;;;;;;0.20;0.20;;;;;;;;;;4808118;29;20045;-91
2021/07/26 08:26:51;;;;;;;0.20;0.20;;;;;;;;;;4808193;29;20128;-91
2021/07/26 08:29:17;;;;;;;0.20;0.20;;;;;;;;;;4792856;29;20042;-90
2021/07/26 08:31:44;;;;;;;0.20;0.20;;;;;;;;;;4793135;29;20058;-88
2021/07/26 08:34:10;;;;;;;0.28;0.28;;;;;;;;;;4792678;29;20050;-89
2021/07/26 08:36:36;;;;;;;0.20;0.20;;;;;;;;;;4792933;29;20046;-90
2021/07/26 08:39:03;;;;;;;0.20;0.20;;;;;;;;;;4793002;29;20045;-92
2021/07/26 08:41:29;;;;;;;0.20;0.20;;;;;;;;;;4793337;29;20046;-91
2021/07/26 08:43:55;;;;;;;0.52;0.40;;;;;;;;;;4792650;29;20058;-90
2021/07/26 08:46:21;;;;;;;0.20;0.20;;;;;;;;;;4807410;29;20173;-89
2021/07/26 08:48:47;;;;;;;0.20;0.20;;;;;;;;;;4792242;29;20042;-88
2021/07/26 08:51:17;;;;;;;0.20;0.20;;;;;;;;;;4807234;29;20042;-88
2021/07/26 08:53:44;;;;;;;0.20;0.20;;;;;;;;;;4807160;29;20404;-88
2021/07/26 08:56:10;;;;;;;0.20;0.20;;;;;;;;;;4811223;29;20042;-90
2021/07/26 08:58:37;;;;;;;0.20;0.20;;;;;;;;;;4792423;29;20060;-89
2021/07/26 09:01:03;;;;;;;0.40;0.40;;;;;;;;;;4807528;29;20045;-88
2021/07/26 09:03:29;;;;;;;0.20;0.20;;;;;;;;;;4792450;29;20042;-89
2021/07/26 09:05:55;;;;;;;0.20;0.20;;;;;;;;;;4791867;29;20054;-87
2021/07/26 09:08:21;;;;;;;0.20;0.20;;;;;;;;;;4791962;29;20491;-88
2021/07/26 09:10:47;;;;;;;0.20;0.20;;;;;;;;;;4823365;29;20114;-90
2021/07/26 09:13:13;;;;;;;0.20;0.20;;;;;;;;;;4806796;29;20389;-88
2021/07/26 09:15:44;;;;;;;0.20;0.20;;;;;;;;;;4791828;29;20095;-87
2021/07/26 09:18:10;;;;;;;0.20;0.20;;;;;;;;;;4791867;29;20041;-88
2021/07/26 09:20:39;;;;;;;0.20;0.20;;;;;;;;;;4804190;29;20046;-88
2021/07/26 09:23:13;;;;;;;0.20;0.20;;;;;;;;;;4806410;29;20125;-87
2021/07/26 09:25:49;;;;;;;0.20;0.20;;;;;;;;;;4806635;29;20054;-88
2021/07/26 09:28:15;;;;;;;0.20;0.20;;;;;;;;;;4806701;29;20047;-88
2021/07/26 09:30:41;;;;;;;0.20;0.20;;;;;;;;;;4806578;29;20467;-87
2021/07/26 09:33:18;;;;;;;0.20;0.20;;;;;;;;;;4822891;29;20046;-88
2021/07/26 09:35:44;;;;;;;0.20;0.20;;;;;;;;;;4822433;29;20081;-94
2021/07/26 09:38:10;;;;;;;0.20;0.20;;;;;;;;;;4806628;29;20039;-89
2021/07/26 09:40:37;;;;;;;0.20;0.20;;;;;;;;;;4806633;29;20556;-89
2021/07/26 09:43:16;;;;;;;0.20;0.20;;;;;;;;;;4822010;29;20073;-88
2021/07/26 09:45:42;;;;;;;0.20;0.20;;;;;;;;;;4807893;29;20074;-88
2021/07/26 09:48:13;;;;;;;0.20;0.20;;;;;;;;;;4821709;29;20074;-87
2021/07/26 09:50:39;;;;;;;0.20;0.20;;;;;;;;;;4806528;29;20047;-89
2021/07/26 09:53:09;;;;;;;0.25;0.25;;;;;;;;;;4806517;29;20065;-91
2021/07/26 09:55:36;;;;;;;0.20;0.20;;;;;;;;;;4822005;29;20514;-91
2021/07/26 09:58:02;;;;;;;0.20;0.20;;;;;;;;;;4791352;29;20486;-90
2021/07/26 10:00:29;;;;;;;0.20;0.20;;;;;;;;;;4806692;29;20111;-89
2021/07/26 10:02:55;;;;;;;0.20;0.20;;;;;;;;;;4821920;29;20054;-89
2021/07/26 10:05:23;;;;;;;0.20;0.20;;;;;;;;;;4821918;29;20107;-90
2021/07/26 10:07:49;;;;;;;0.20;0.20;;;;;;;;;;4806639;29;20128;-89
2021/07/26 10:10:15;;;;;;;0.20;0.20;;;;;;;;;;4809333;29;20043;-88
2021/07/26 10:12:41;;;;;;;0.20;0.20;;;;;;;;;;4825893;29;20046;-87
2021/07/26 10:15:07;;;;;;;0.20;0.20;;;;;;;;;;4809878;29;20038;-89
2021/07/26 10:17:33;;;;;;;0.20;0.20;;;;;;;;;;4824976;29;20039;-88
2021/07/26 10:19:59;;;;;;;0.30;0.30;;;;;;;;;;4825799;29;20061;-88
2021/07/26 10:22:26;;;;;;;0.20;0.20;;;;;;;;;;4806194;29;20050;-88
2021/07/26 10:24:54;;;;;;;0.20;0.20;;;;;;;;;;4809195;29;20047;-89
2021/07/26 10:27:22;;;;;;;0.20;0.20;;;;;;;;;;4820364;29;20121;-90
2021/07/26 10:29:51;;;;;;;0.20;0.20;;;;;;;;;;4827659;29;20070;-90
2021/07/26 10:32:36;;;;;;;0.32;0.32;;;;;;;;;;4843977;29;20045;-88
2021/07/26 10:35:04;;;;;;;0.20;0.20;;;;;;;;;;4813165;29;20099;-88
2021/07/26 10:37:42;;;;;;;0.20;0.20;;;;;;;;;;4843799;29;20050;-88
2021/07/26 10:40:21;;;;;;;0.20;0.20;;;;;;;;;;4844043;29;20121;-87
2021/07/26 10:42:47;;;;;;;0.20;0.20;;;;;;;;;;4812345;29;20155;-88
2021/07/26 10:45:32;;;;;;;0.20;0.20;;;;;;;;;;4827478;29;20135;-89
2021/07/26 10:48:17;;;;;;;0.20;0.20;;;;;;;;;;4843551;29;20053;-89
2021/07/26 10:50:44;;;;;;;0.20;0.20;;;;;;;;;;4827302;29;20395;-88
2021/07/26 10:53:11;;;;;;;0.20;0.20;;;;;;;;;;4828290;29;20114;-94
2021/07/26 10:56:01;;;;;;;0.20;0.20;;;;;;;;;;4792208;29;20035;-88
2021/07/26 10:58:36;;;;;;;0.20;0.20;;;;;;;;;;4776518;29;20129;-89
2021/07/26 11:01:25;;;;;;;0.20;0.20;;;;;;;;;;4807145;29;20035;-87
2021/07/26 11:03:52;;;;;;;0.30;0.30;;;;;;;;;;4807169;29;20341;-87
2021/07/26 11:09:17;;;;;;;0.20;0.20;;;;;;;;;;4806996;29;20042;-87
2021/07/26 11:11:43;;;;;;;0.20;0.20;;;;;;;;;;4806944;29;20118;-88
2021/07/26 11:14:10;;;;;;;0.20;0.20;;;;;;;;;;4790983;29;20552;-89
2021/07/26 11:17:04;;;;;;;0.20;0.20;;;;;;;;;;4791148;29;20122;-88
2021/07/26 11:19:33;;;;;;;0.20;0.20;;;;;;;;;;4789045;29;20055;-88
2021/07/26 11:21:59;;;;;;;0.20;0.20;;;;;;;;;;4805689;29;20535;-89
2021/07/26 11:24:41;;;;;;;0.20;0.20;;;;;;;;;;4806770;29;20081;-88
2021/07/26 11:27:10;;;;;;;0.20;0.20;;;;;;;;;;4806732;29;20122;-88
2021/07/26 11:29:36;;;;;;;0.20;0.20;;;;;;;;;;4775750;29;20119;-89
2021/07/26 11:32:02;;;;;;;0.20;0.20;;;;;;;;;;4775636;29;20364;-88
2021/07/26 11:34:29;;;;;;;0.25;0.25;;;;;;;;;;4806650;29;20134;-88
2021/07/26 11:37:13;;;;;;;0.20;0.20;;;;;;;;;;4790494;29;20055;-89
2021/07/26 11:39:58;;;;;;;0.20;0.20;;;;;;;;;;4790602;29;20107;-89
2021/07/26 11:42:34;;;;;;;0.20;0.20;;;;;;;;;;4790509;29;20113;-88
2021/07/26 11:45:03;;;;;;;0.20;0.20;;;;;;;;;;4790402;29;20035;-88
2021/07/26 11:47:39;;;;;;;0.20;0.20;;;;;;;;;;4790566;29;20038;-88
2021/07/26 11:50:06;;;;;;;0.20;0.20;;;;;;;;;;4790387;29;20126;-88
2021/07/26 11:52:32;;;;;;;0.20;0.20;;;;;;;;;;4805869;29;20058;-88
2021/07/26 11:54:58;;;;;;;0.20;0.20;;;;;;;;;;4790155;29;20536;-88
2021/07/26 11:57:24;;;;;;;0.20;0.20;;;;;;;;;;4775170;29;20496;-88
2021/07/26 11:59:53;;;;;;;0.20;0.20;;;;;;;;;;4760258;29;20047;-89
2021/07/26 12:02:29;;;;;;;0.20;0.20;;;;;;;;;;4775172;29;20075;-88
2021/07/26 12:04:55;;;;;;;0.20;0.20;;;;;;;;;;4775134;29;20381;-87
2021/07/26 12:07:40;;;;;;;0.20;0.20;;;;;;;;;;4789938;29;20123;-88
2021/07/26 12:10:06;;;;;;;0.20;0.20;;;;;;;;;;4789691;29;20047;-88
2021/07/26 12:12:37;;;;;;;0.20;0.20;;;;;;;;;;4774775;29;20050;-88
2021/07/26 12:15:22;;;;;;;0.20;0.20;;;;;;;;;;4790483;29;20039;-86
2021/07/26 12:18:03;;;;;;;0.20;0.20;;;;;;;;;;4805968;29;20117;-90
2021/07/26 12:20:29;;;;;;;0.10;0.10;;;;;;;;;;4789700;29;20057;-89
2021/07/26 12:22:55;;;;;;;0.20;0.20;;;;;;;;;;4775163;29;20054;-90
2021/07/26 12:25:22;;;;;;;0.20;0.20;;;;;;;;;;4805818;29;20039;-89
2021/07/26 12:28:03;;;;;;;0.55;0.55;;;;;;;;;;4789812;29;20046;-88
2021/07/26 12:30:39;;;;;;;0.20;0.20;;;;;;;;;;4790198;29;20071;-89
2021/07/26 12:33:06;;;;;;;0.20;0.20;;;;;;;;;;4789616;29;20243;-89
2021/07/26 12:35:32;;;;;;;0.20;0.20;;;;;;;;;;4789728;29;20484;-90
2021/07/26 12:38:06;;;;;;;0.20;0.20;;;;;;;;;;4805516;29;20442;-89
2021/07/26 12:40:33;;;;;;;0.20;0.20;;;;;;;;;;4789565;29;20045;-91
2021/07/26 12:43:10;;;;;;;0.25;0.25;;;;;;;;;;4789598;29;20376;-89
2021/07/26 12:45:36;;;;;;;0.20;0.20;;;;;;;;;;4789639;29;20042;-88
2021/07/26 12:48:12;;;;;;;0.20;0.20;;;;;;;;;;4774380;29;20047;-88
2021/07/26 12:50:39;;;;;;;0.13;0.13;;;;;;;;;;4774533;29;20043;-89
2021/07/26 12:53:05;;;;;;;0.20;0.20;;;;;;;;;;4789628;29;20211;-89
2021/07/26 12:55:31;;;;;;;0.20;0.20;;;;;;;;;;4789617;29;20195;-92
2021/07/26 12:57:57;;;;;;;0.10;0.10;;;;;;;;;;4759841;29;20047;-90
2021/07/26 13:00:23;;;;;;;0.20;0.20;;;;;;;;;;4774727;29;20356;-89
2021/07/26 13:02:49;;;;;;;0.20;0.20;;;;;;;;;;4774417;29;20047;-88
2021/07/26 13:05:16;;;;;;;0.20;0.20;;;;;;;;;;4789594;29;20115;-88
2021/07/26 13:07:42;;;;;;;0.13;0.13;;;;;;;;;;4774590;29;20102;-87
2021/07/26 13:10:09;;;;;;;0.20;0.20;;;;;;;;;;4789287;29;20053;-89
2021/07/26 13:12:35;;;;;;;0.20;0.20;;;;;;;;;;4789239;29;20047;-86
2021/07/26 13:15:03;;;;;;;0.20;0.20;;;;;;;;;;4774375;29;20047;-89
2021/07/26 13:17:29;;;;;;;0.20;0.20;;;;;;;;;;4774433;29;20054;-89
2021/07/26 13:19:55;;;;;;;0.20;0.20;;;;;;;;;;4796321;29;20043;-88
2021/07/26 13:22:21;;;;;;;0.20;0.20;;;;;;;;;;4789128;29;20038;-87
2021/07/26 13:24:47;;;;;;;0.20;0.20;;;;;;;;;;4804423;29;20047;-92
2021/07/26 13:27:13;;;;;;;0.20;0.20;;;;;;;;;;4789164;29;20038;-89
2021/07/26 13:29:39;;;;;;;0.20;0.20;;;;;;;;;;4803349;29;20043;-88
2021/07/26 13:32:05;;;;;;;0.20;0.20;;;;;;;;;;4788809;29;20039;-88
2021/07/26 13:34:31;;;;;;;0.10;0.10;;;;;;;;;;4788667;29;20046;-89
2021/07/26 13:36:58;;;;;;;0.20;0.20;;;;;;;;;;4788779;29;20042;-89
2021/07/26 13:39:26;;;;;;;0.20;0.20;;;;;;;;;;4789060;29;20051;-88
2021/07/26 13:41:54;;;;;;;0.20;0.20;;;;;;;;;;4788828;29;20122;-88
2021/07/26 13:44:20;;;;;;;0.20;0.20;;;;;;;;;;4775433;29;20459;-88
2021/07/26 13:46:46;;;;;;;0.20;0.20;;;;;;;;;;4792316;29;20043;-88
2021/07/26 13:49:12;;;;;;;0.10;0.10;;;;;;;;;;4792081;29;20049;-87
2021/07/26 13:51:38;;;;;;;0.20;0.20;;;;;;;;;;4792051;29;20070;-88
2021/07/26 13:54:04;;;;;;;0.20;0.20;;;;;;;;;;4792170;29;20531;-88
2021/07/26 13:56:32;;;;;;;0.20;0.20;;;;;;;;;;4792219;29;20054;-88
2021/07/26 13:58:58;;;;;;;0.20;0.20;;;;;;;;;;4791980;29;20046;-87
2021/07/26 14:01:24;;;;;;;0.20;0.20;;;;;;;;;;4791973;29;20039;-88
2021/07/26 14:03:50;;;;;;;0.20;0.20;;;;;;;;;;4808003;29;20058;-87
2021/07/26 14:06:16;;;;;;;0.38;0.38;;;;;;;;;;4792133;29;20104;-88
2021/07/26 14:08:42;;;;;;;0.20;0.20;;;;;;;;;;4791872;29;20043;-86
2021/07/26 14:11:08;;;;;;;0.17;0.17;;;;;;;;;;4808017;29;20058;-86
2021/07/26 14:13:34;;;;;;;0.20;0.20;;;;;;;;;;4791793;29;20047;-87
2021/07/26 14:16:00;;;;;;;0.30;0.30;;;;;;;;;;4791692;29;20038;-87
2021/07/26 14:18:29;;;;;;;0.10;0.10;;;;;;;;;;4791580;29;20047;-87
2021/07/26 14:20:55;;;;;;;0.30;0.30;;;;;;;;;;4791623;29;20073;-87
2021/07/26 14:23:21;;;;;;;0.20;0.20;;;;;;;;;;4776892;29;20047;-88
2021/07/26 14:25:47;;;;;;;0.20;0.20;;;;;;;;;;4791841;29;20039;-89
2021/07/26 14:28:13;;;;;;;0.10;0.10;;;;;;;;;;4791642;29;20054;-88
2021/07/26 14:30:39;;;;;;;0.20;0.20;;;;;;;;;;4791444;29;20130;-88
2021/07/26 14:33:05;;;;;;;0.20;0.20;;;;;;;;;;4791403;29;20058;-87
2021/07/26 14:35:34;;;;;;;0.20;0.20;;;;;;;;;;4791399;29;20043;-88
2021/07/26 14:38:00;;;;;;;0.20;0.20;;;;;;;;;;4797180;29;20047;-92
2021/07/26 14:40:28;;;;;;;0.10;0.10;;;;;;;;;;4791767;29;20050;-88
2021/07/26 14:42:54;;;;;;;0.20;0.20;;;;;;;;;;4806307;29;20386;-86
2021/07/26 14:45:20;;;;;;;0.13;0.13;;;;;;;;;;4791194;29;20104;-87
2021/07/26 14:47:46;;;;;;;0.20;0.20;;;;;;;;;;4791059;29;20107;-89
2021/07/26 14:50:13;;;;;;;0.20;0.20;;;;;;;;;;4791209;29;20117;-87